Time;durP1;ratioP1;P1;durP2;ratioP2;P2;SDS_P1;SDS_P2;PMS_P1;PMS_P2;Temp;Humidity;BMP_temperature;BMP_pressure;BME280_temperature;BME280_humidity;BME280_pressure;Samples;Min_cycle;Max_cycle;Signal;HPM_P1;HPM_P2
2023/04/01 00:00:20;;;;;;;1.23;1.23;;;12.90;99.90;;;;;;5024727;28;20029;-75
2023/04/01 00:02:47;;;;;;;1.00;1.00;;;12.90;99.90;;;;;;5024312;28;20109;-75
2023/04/01 00:05:14;;;;;;;0.10;0.10;;;13.00;99.90;;;;;;5024064;28;20017;-75
2023/04/01 00:07:40;;;;;;;0.10;0.10;;;13.00;99.90;;;;;;5026192;28;20052;-75
2023/04/01 00:10:07;;;;;;;0.10;0.10;;;13.00;99.90;;;;;;5025513;28;20728;-75
2023/04/01 00:12:34;;;;;;;0.17;0.17;;;13.00;99.90;;;;;;5024413;28;20538;-75
2023/04/01 00:15:00;;;;;;;0.10;0.10;;;12.90;99.90;;;;;;5004905;28;20069;-77
2023/04/01 00:17:26;;;;;;;0.10;0.10;;;13.00;99.90;;;;;;5022276;28;20087;-76
2023/04/01 00:19:55;;;;;;;0.10;0.10;;;12.90;99.90;;;;;;5022908;28;20029;-76
2023/04/01 00:22:21;;;;;;;0.10;0.10;;;12.90;99.90;;;;;;5021799;28;20021;-76
2023/04/01 00:24:47;;;;;;;0.20;0.20;;;12.90;99.90;;;;;;5004509;28;20109;-76
2023/04/01 00:27:16;;;;;;;0.10;0.10;;;12.90;99.90;;;;;;5021596;28;20101;-76
2023/04/01 00:29:43;;;;;;;0.10;0.10;;;12.90;99.90;;;;;;5020937;28;20672;-79
2023/04/01 00:32:09;;;;;;;0.00;0.00;;;12.80;99.90;;;;;;5022216;28;20018;-75
2023/04/01 00:34:35;;;;;;;0.20;0.20;;;12.90;99.90;;;;;;5008749;28;20046;-76
2023/04/01 00:37:01;;;;;;;0.10;0.10;;;13.00;99.90;;;;;;5025416;28;20100;-75
2023/04/01 00:39:31;;;;;;;0.10;0.10;;;13.10;99.90;;;;;;5026794;28;20701;-75
2023/04/01 00:41:57;;;;;;;0.08;0.08;;;13.10;99.90;;;;;;5007450;28;20044;-75
2023/04/01 00:44:26;;;;;;;0.13;0.13;;;13.10;99.90;;;;;;5017972;28;20028;-78
2023/04/01 00:46:52;;;;;;;0.13;0.13;;;13.10;99.90;;;;;;5034284;28;20025;-76
2023/04/01 00:49:22;;;;;;;0.10;0.10;;;13.10;99.90;;;;;;5018289;28;20029;-75
2023/04/01 00:51:52;;;;;;;0.10;0.10;;;13.10;99.90;;;;;;5033780;28;20021;-79
2023/04/01 00:54:24;;;;;;;0.10;0.10;;;13.10;99.90;;;;;;5017621;28;20024;-77
2023/04/01 00:56:59;;;;;;;0.20;0.20;;;12.90;99.90;;;;;;5029344;28;20568;-75
2023/04/01 00:59:29;;;;;;;0.10;0.10;;;13.10;99.90;;;;;;5023762;28;20507;-75
2023/04/01 01:01:55;;;;;;;3.50;3.13;;;13.00;99.90;;;;;;5006461;28;20029;-76
2023/04/01 01:04:33;;;;;;;0.10;0.10;;;13.00;99.90;;;;;;5030534;28;20028;-76
2023/04/01 01:07:53;;;;;;;0.10;0.10;;;13.60;99.90;;;;;;5025350;28;20095;-76
2023/04/01 01:10:33;;;;;;;0.10;0.10;;;12.60;99.90;;;;;;4946770;29;20035;-76
2023/04/01 01:13:17;;;;;;;0.10;0.10;;;13.00;99.90;;;;;;4950798;29;20791;-77
2023/04/01 01:16:29;;;;;;;0.20;0.20;;;13.10;99.90;;;;;;4947066;29;20047;-76
2023/04/01 01:19:31;;;;;;;0.20;0.20;;;13.00;99.90;;;;;;4944569;29;20110;-77
2023/04/01 01:22:18;;;;;;;0.10;0.10;;;13.00;99.90;;;;;;4941600;29;20063;-76
2023/04/01 01:25:27;;;;;;;0.10;0.10;;;12.90;99.90;;;;;;4943326;29;20031;-75
2023/04/01 01:28:12;;;;;;;0.10;0.10;;;13.10;99.90;;;;;;4869862;29;20112;-76
2023/04/01 01:30:59;;;;;;;0.10;0.10;;;13.10;99.90;;;;;;4866269;29;20052;-78
2023/04/01 01:33:39;;;;;;;0.10;0.10;;;13.10;99.90;;;;;;4866414;29;20112;-79
2023/04/01 01:36:08;;;;;;;3.75;3.60;;;13.00;99.90;;;;;;4865308;29;20708;-77
2023/04/01 01:38:35;;;;;;;0.55;0.55;;;13.00;99.90;;;;;;4863804;29;20044;-80
2023/04/01 01:41:04;;;;;;;0.10;0.10;;;13.00;99.90;;;;;;4847938;29;20566;-76
2023/04/01 01:43:47;;;;;;;0.10;0.10;;;13.00;99.90;;;;;;4878758;29;20059;-77
2023/04/01 01:46:17;;;;;;;0.10;0.10;;;13.00;99.90;;;;;;4903762;29;20191;-76
2023/04/01 01:48:44;;;;;;;0.13;0.13;;;13.00;99.90;;;;;;4904146;29;20756;-76
2023/04/01 01:51:10;;;;;;;0.17;0.17;;;12.90;99.90;;;;;;4920012;29;20075;-77
2023/04/01 01:53:39;;;;;;;0.10;0.10;;;12.90;99.90;;;;;;4919958;29;20066;-76
2023/04/01 01:56:05;;;;;;;0.10;0.10;;;12.80;99.90;;;;;;4920077;29;20034;-76
2023/04/01 01:58:58;;;;;;;0.10;0.10;;;12.80;99.90;;;;;;4919682;29;20692;-76
2023/04/01 02:01:29;;;;;;;0.10;0.10;;;12.70;99.90;;;;;;4922046;29;20119;-76
2023/04/01 02:03:57;;;;;;;0.10;0.10;;;12.70;99.90;;;;;;4936633;28;20648;-76
2023/04/01 02:06:28;;;;;;;0.10;0.10;;;12.70;99.90;;;;;;5022664;28;20013;-76
2023/04/01 02:09:10;;;;;;;1.15;1.15;;;12.60;99.90;;;;;;5022462;28;20585;-76
2023/04/01 02:11:48;;;;;;;0.10;0.10;;;12.60;99.90;;;;;;5021239;28;20052;-75
2023/04/01 02:14:18;;;;;;;4.53;4.32;;;12.60;99.90;;;;;;5021507;28;20591;-76
2023/04/01 02:16:49;;;;;;;0.10;0.10;;;12.50;99.90;;;;;;5002401;28;20231;-76
2023/04/01 02:19:22;;;;;;;0.00;0.00;;;12.50;99.90;;;;;;5001121;28;20029;-76
2023/04/01 02:21:51;;;;;;;0.10;0.10;;;12.50;99.90;;;;;;5019488;28;20522;-76
2023/04/01 02:24:22;;;;;;;0.10;0.10;;;12.50;99.90;;;;;;5019742;28;20679;-76
2023/04/01 02:26:51;;;;;;;0.10;0.10;;;12.10;99.90;;;;;;5019998;28;20028;-76
2023/04/01 02:29:20;;;;;;;0.10;0.10;;;12.50;99.90;;;;;;5019271;28;20464;-76
2023/04/01 02:31:46;;;;;;;0.05;0.05;;;12.40;99.90;;;;;;5020012;28;20111;-76
2023/04/01 02:34:13;;;;;;;0.10;0.10;;;12.40;99.90;;;;;;5021258;28;20182;-77
2023/04/01 02:36:39;;;;;;;0.10;0.10;;;12.50;99.90;;;;;;5004385;28;20022;-75
2023/04/01 02:39:05;;;;;;;0.10;0.10;;;12.50;99.90;;;;;;5021821;28;20027;-75
2023/04/01 02:41:31;;;;;;;0.10;0.10;;;12.40;99.90;;;;;;5021500;28;20021;-75
2023/04/01 02:43:58;;;;;;;0.17;0.17;;;12.60;99.90;;;;;;5022754;28;20103;-75
2023/04/01 02:46:24;;;;;;;0.10;0.10;;;12.40;99.90;;;;;;5002907;28;20034;-76
2023/04/01 02:48:50;;;;;;;0.20;0.20;;;12.30;99.90;;;;;;5022324;28;20022;-77
2023/04/01 02:51:18;;;;;;;0.10;0.10;;;12.30;99.90;;;;;;5021958;28;20100;-78
2023/04/01 02:53:44;;;;;;;0.10;0.10;;;12.30;99.90;;;;;;5019921;28;20029;-78
2023/04/01 02:56:10;;;;;;;0.10;0.10;;;12.30;99.90;;;;;;5020428;28;20021;-78
2023/04/01 02:58:36;;;;;;;0.10;0.10;;;12.30;99.90;;;;;;5003448;28;20684;-76
2023/04/01 03:01:02;;;;;;;0.10;0.10;;;12.20;99.90;;;;;;5021191;28;20014;-76
2023/04/01 03:03:28;;;;;;;0.10;0.10;;;12.20;99.90;;;;;;5021983;28;20087;-76
2023/04/01 03:05:56;;;;;;;0.00;0.00;;;12.30;99.90;;;;;;5023511;28;20028;-76
2023/04/01 03:08:22;;;;;;;2.75;2.65;;;12.30;99.90;;;;;;5024939;28;20032;-76
2023/04/01 03:10:48;;;;;;;0.10;0.10;;;12.30;99.90;;;;;;5023517;28;20017;-79
2023/04/01 03:13:13;;;;;;;0.35;0.35;;;12.30;99.90;;;;;;5029069;28;20030;-75
2023/04/01 03:15:39;;;;;;;0.10;0.10;;;12.30;99.90;;;;;;5009348;28;20693;-76
2023/04/01 03:18:05;;;;;;;0.10;0.10;;;12.40;99.90;;;;;;5008118;28;20073;-76
2023/04/01 03:20:31;;;;;;;0.10;0.10;;;12.40;99.90;;;;;;5026053;28;20028;-76
2023/04/01 03:22:57;;;;;;;0.20;0.20;;;12.50;99.90;;;;;;5028033;28;20512;-75
2023/04/01 03:25:23;;;;;;;0.10;0.10;;;12.50;99.90;;;;;;5027526;28;20022;-75
2023/04/01 03:27:49;;;;;;;0.10;0.10;;;12.50;99.90;;;;;;5027804;28;20561;-76
2023/04/01 03:30:15;;;;;;;0.10;0.10;;;12.50;99.90;;;;;;5023880;28;20033;-76
2023/04/01 03:32:40;;;;;;;0.10;0.10;;;12.60;99.90;;;;;;5022230;28;20100;-78
2023/04/01 03:35:06;;;;;;;0.10;0.10;;;12.60;99.90;;;;;;5022426;28;20544;-76
2023/04/01 03:37:32;;;;;;;0.20;0.20;;;12.60;99.90;;;;;;5021842;28;20022;-75
2023/04/01 03:40:01;;;;;;;0.10;0.10;;;;;;;;;;5021727;28;20670;-76
2023/04/01 03:42:27;;;;;;;0.20;0.20;;;12.50;99.90;;;;;;5021792;28;20278;-76
2023/04/01 03:44:53;;;;;;;0.20;0.20;;;;;;;;;;5004683;28;20515;-76
2023/04/01 03:47:19;;;;;;;0.20;0.20;;;12.50;99.90;;;;;;5024574;28;20018;-75
2023/04/01 03:49:44;;;;;;;0.20;0.20;;;11.70;99.90;;;;;;5023647;28;20038;-76
2023/04/01 03:52:11;;;;;;;0.10;0.10;;;12.60;99.90;;;;;;5022873;28;20018;-76
2023/04/01 03:54:37;;;;;;;0.10;0.10;;;12.50;99.90;;;;;;5021629;28;20017;-77
2023/04/01 03:57:05;;;;;;;0.10;0.10;;;10.00;99.90;;;;;;5021912;28;20097;-77
2023/04/01 03:59:30;;;;;;;0.10;0.10;;;12.50;99.90;;;;;;5004658;28;20025;-77
2023/04/01 04:01:56;;;;;;;0.10;0.10;;;;;;;;;;5021666;28;20017;-75
2023/04/01 04:04:22;;;;;;;0.10;0.10;;;12.50;99.90;;;;;;5021229;28;20531;-77
2023/04/01 04:06:48;;;;;;;0.20;0.20;;;12.40;99.90;;;;;;5021162;28;20025;-77
2023/04/01 04:09:14;;;;;;;0.10;0.10;;;12.40;99.90;;;;;;5020850;28;20099;-75
2023/04/01 04:11:40;;;;;;;0.10;0.10;;;;;;;;;;5021205;28;20594;-75
2023/04/01 04:14:06;;;;;;;0.10;0.10;;;12.40;99.90;;;;;;5020777;28;20029;-76
2023/04/01 04:16:36;;;;;;;0.10;0.10;;;12.40;99.90;;;;;;5021280;28;20033;-75
2023/04/01 04:19:03;;;;;;;0.10;0.10;;;12.70;99.90;;;;;;5020509;28;20041;-76
2023/04/01 04:21:29;;;;;;;0.10;0.10;;;12.50;99.90;;;;;;5021235;28;20017;-81
2023/04/01 04:23:54;;;;;;;0.08;0.08;;;12.50;99.90;;;;;;5021753;28;20036;-75
2023/04/01 04:26:20;;;;;;;0.10;0.10;;;12.60;99.90;;;;;;5021261;28;20014;-76
2023/04/01 04:28:46;;;;;;;0.20;0.20;;;12.60;99.90;;;;;;5021465;28;20108;-76
2023/04/01 04:31:17;;;;;;;0.10;0.10;;;12.60;99.90;;;;;;5021776;28;20037;-76
2023/04/01 04:33:43;;;;;;;0.10;0.10;;;12.60;99.90;;;;;;5022283;28;20010;-76
2023/04/01 04:36:09;;;;;;;0.10;0.10;;;12.60;99.90;;;;;;5025452;28;20028;-75
2023/04/01 04:38:34;;;;;;;0.10;0.10;;;12.60;99.90;;;;;;5027339;28;20584;-75
2023/04/01 04:41:00;;;;;;;0.10;0.10;;;12.60;99.90;;;;;;5027246;28;20033;-75
2023/04/01 04:43:26;;;;;;;0.00;0.00;;;12.50;99.90;;;;;;5025024;28;20049;-76
2023/04/01 04:45:52;;;;;;;0.10;0.10;;;12.50;99.90;;;;;;5024904;28;20706;-76
2023/04/01 04:48:18;;;;;;;0.10;0.10;;;12.40;99.90;;;;;;5026957;28;20017;-75
2023/04/01 04:50:53;;;;;;;0.10;0.10;;;12.20;99.90;;;;;;5007241;28;20049;-75
2023/04/01 04:53:19;;;;;;;0.10;0.10;;;12.10;99.90;;;;;;5027053;28;20056;-76
2023/04/01 04:55:49;;;;;;;0.10;0.10;;;11.50;99.90;;;;;;5025825;28;20108;-75
2023/04/01 04:58:16;;;;;;;0.10;0.10;;;12.00;99.90;;;;;;5008257;28;20045;-76
2023/04/01 05:00:42;;;;;;;0.10;0.10;;;;;;;;;;5025760;28;20152;-77
2023/04/01 05:03:09;;;;;;;0.10;0.10;;;11.60;99.90;;;;;;5026082;28;20018;-76
2023/04/01 05:05:34;;;;;;;0.00;0.00;;;11.50;99.90;;;;;;5009026;28;20112;-76
2023/04/01 05:08:00;;;;;;;0.10;0.10;;;;;;;;;;5026280;28;20168;-75
2023/04/01 05:10:26;;;;;;;0.10;0.10;;;11.60;99.90;;;;;;5028897;28;20025;-75
2023/04/01 05:12:52;;;;;;;0.10;0.10;;;11.50;99.90;;;;;;5031735;28;20017;-75
2023/04/01 05:15:18;;;;;;;0.10;0.10;;;11.60;99.90;;;;;;5032683;28;20048;-75
2023/04/01 05:17:44;;;;;;;0.03;0.03;;;11.10;99.90;;;;;;5032189;28;20045;-75
2023/04/01 05:20:13;;;;;;;0.00;0.00;;;11.30;99.90;;;;;;5031447;28;20022;-75
2023/04/01 05:22:39;;;;;;;0.00;0.00;;;11.20;99.90;;;;;;5030153;28;20032;-75
2023/04/01 05:25:08;;;;;;;0.08;0.08;;;11.00;99.90;;;;;;5026783;28;20025;-75
2023/04/01 05:27:35;;;;;;;0.05;0.05;;;10.80;99.90;;;;;;5026131;28;20224;-75
2023/04/01 05:30:01;;;;;;;0.00;0.00;;;11.20;99.90;;;;;;5026185;28;20045;-76
2023/04/01 05:32:30;;;;;;;0.10;0.10;;;10.90;99.90;;;;;;4985486;28;20042;-76
2023/04/01 05:34:56;;;;;;;0.20;0.20;;;12.40;99.90;;;;;;4983331;28;20038;-75
2023/04/01 05:37:22;;;;;;;0.08;0.08;;;11.10;99.90;;;;;;4981623;28;20034;-76
2023/04/01 05:39:48;;;;;;;0.10;0.10;;;11.40;99.90;;;;;;4963944;28;20031;-75
2023/04/01 05:42:15;;;;;;;0.10;0.10;;;10.90;99.90;;;;;;4980075;28;20673;-76
2023/04/01 05:44:41;;;;;;;0.00;0.00;;;8.40;99.90;;;;;;4981321;28;20033;-75
2023/04/01 05:47:07;;;;;;;0.10;0.10;;;11.00;99.90;;;;;;4981778;28;20035;-75
2023/04/01 05:49:33;;;;;;;0.10;0.10;;;10.90;99.90;;;;;;4980318;28;20108;-75
2023/04/01 05:51:59;;;;;;;0.15;0.15;;;10.90;99.90;;;;;;4980438;28;20034;-75
2023/04/01 05:54:25;;;;;;;2.20;2.13;;;10.90;99.90;;;;;;4981018;28;20041;-75
2023/04/01 05:56:51;;;;;;;0.10;0.10;;;10.90;99.90;;;;;;4981309;28;20030;-75
2023/04/01 05:59:16;;;;;;;0.10;0.10;;;11.50;99.90;;;;;;4979833;28;20109;-77
2023/04/01 06:01:42;;;;;;;0.05;0.05;;;11.00;99.90;;;;;;4980190;28;20673;-75
2023/04/01 06:04:15;;;;;;;0.17;0.17;;;10.90;99.90;;;;;;5012049;28;20030;-77
2023/04/01 06:06:41;;;;;;;0.10;0.10;;;11.40;99.90;;;;;;5021944;28;20022;-74
2023/04/01 06:09:30;;;;;;;0.10;0.10;;;10.90;99.90;;;;;;5023323;28;20038;-76
2023/04/01 06:12:08;;;;;;;0.08;0.08;;;11.00;99.90;;;;;;4941511;29;20031;-75
2023/04/01 06:14:45;;;;;;;0.10;0.10;;;11.00;99.90;;;;;;4941297;29;20027;-75
2023/04/01 06:17:42;;;;;;;0.10;0.10;;;11.30;99.90;;;;;;4942468;29;20770;-76
2023/04/01 06:20:39;;;;;;;0.03;0.03;;;11.10;99.90;;;;;;4941562;29;20039;-75
2023/04/01 06:23:15;;;;;;;0.10;0.10;;;11.10;99.90;;;;;;4941535;29;20031;-75
2023/04/01 06:26:04;;;;;;;0.10;0.10;;;11.40;99.90;;;;;;4941448;29;20015;-74
2023/04/01 06:28:57;;;;;;;0.10;0.10;;;11.10;99.90;;;;;;4941741;29;20310;-75
2023/04/01 06:32:00;;;;;;;0.10;0.10;;;12.10;99.90;;;;;;4941522;29;20059;-75
2023/04/01 06:34:31;;;;;;;0.10;0.10;;;11.10;99.90;;;;;;4942490;29;20230;-75
2023/04/01 06:37:00;;;;;;;0.17;0.17;;;11.10;99.90;;;;;;4942421;29;20039;-74
2023/04/01 06:39:26;;;;;;;0.28;0.28;;;;;;;;;;4942031;28;20050;-75
2023/04/01 06:42:11;;;;;;;0.10;0.10;;;11.10;99.90;;;;;;4944389;29;20031;-75
2023/04/01 06:44:48;;;;;;;0.73;0.73;;;11.10;99.90;;;;;;4945125;29;20059;-75
2023/04/01 06:47:37;;;;;;;0.10;0.10;;;11.00;99.90;;;;;;4929498;29;20023;-75
2023/04/01 06:50:35;;;;;;;0.10;0.10;;;11.00;99.90;;;;;;5001784;28;20053;-75
2023/04/01 06:53:17;;;;;;;0.10;0.10;;;10.90;99.90;;;;;;5007896;28;20033;-76
2023/04/01 06:55:48;;;;;;;0.00;0.00;;;10.80;99.90;;;;;;5026525;28;20017;-76
2023/04/01 06:58:22;;;;;;;0.10;0.10;;;10.70;99.90;;;;;;5026174;28;20010;-76
2023/04/01 07:00:53;;;;;;;0.00;0.00;;;10.30;99.90;;;;;;5026996;28;20020;-76
2023/04/01 07:03:26;;;;;;;0.10;0.10;;;10.00;99.90;;;;;;5007955;28;20116;-76
2023/04/01 07:05:53;;;;;;;0.10;0.10;;;9.30;99.90;;;;;;5027589;28;20037;-76
2023/04/01 07:08:25;;;;;;;0.00;0.00;;;9.40;99.90;;;;;;5027142;28;20112;-76
2023/04/01 07:11:05;;;;;;;0.00;0.00;;;9.20;99.90;;;;;;5010817;28;20040;-75
2023/04/01 07:13:36;;;;;;;0.00;0.00;;;9.00;99.90;;;;;;5008589;28;20103;-75
2023/04/01 07:16:11;;;;;;;0.00;0.00;;;8.80;99.90;;;;;;5027268;28;20566;-75
2023/04/01 07:18:42;;;;;;;0.00;0.00;;;8.70;99.90;;;;;;5026440;28;20264;-76
2023/04/01 07:21:41;;;;;;;0.00;0.00;;;8.70;99.90;;;;;;5011025;28;20037;-76
2023/04/01 07:24:17;;;;;;;0.00;0.00;;;8.70;99.90;;;;;;5024127;28;20124;-75
2023/04/01 07:26:43;;;;;;;0.00;0.00;;;8.70;99.90;;;;;;5009812;28;20543;-76
2023/04/01 07:29:12;;;;;;;0.00;0.00;;;8.70;99.90;;;;;;5029276;28;20067;-76
2023/04/01 07:32:13;;;;;;;0.00;0.00;;;8.80;99.90;;;;;;5010838;28;20029;-76
2023/04/01 07:35:24;;;;;;;0.65;0.65;;;8.80;99.90;;;;;;5028996;28;20045;-76
2023/04/01 07:37:56;;;;;;;0.00;0.00;;;8.70;99.90;;;;;;5007921;28;20029;-75
2023/04/01 07:40:49;;;;;;;0.00;0.00;;;8.10;99.90;;;;;;5028617;28;20026;-76
2023/04/01 07:43:36;;;;;;;0.00;0.00;;;8.00;99.90;;;;;;4945744;29;20641;-75
2023/04/01 07:46:30;;;;;;;0.00;0.00;;;7.80;99.90;;;;;;4945685;29;20027;-75
2023/04/01 07:49:08;;;;;;;0.08;0.08;;;7.60;99.90;;;;;;4943617;29;20579;-75
2023/04/01 07:51:45;;;;;;;0.00;0.00;;;7.40;99.90;;;;;;4927655;29;20134;-76
2023/04/01 07:54:48;;;;;;;0.10;0.10;;;7.30;99.90;;;;;;4949687;29;20047;-75
2023/04/01 07:57:22;;;;;;;0.00;0.00;;;7.20;99.90;;;;;;4946914;29;20026;-75
2023/04/01 08:00:08;;;;;;;0.00;0.00;;;7.20;99.90;;;;;;4944755;29;20103;-75
2023/04/01 08:02:42;;;;;;;0.00;0.00;;;7.10;99.90;;;;;;4943823;29;20482;-76
2023/04/01 08:05:34;;;;;;;0.10;0.10;;;7.10;99.90;;;;;;4945711;29;20027;-75
2023/04/01 08:08:38;;;;;;;0.00;0.00;;;7.10;99.90;;;;;;4947105;29;20039;-75
2023/04/01 08:11:18;;;;;;;0.00;0.00;;;7.10;99.90;;;;;;4894116;29;20043;-76
2023/04/01 08:13:52;;;;;;;0.03;0.03;;;7.10;99.90;;;;;;4887858;29;20039;-75
2023/04/01 08:16:42;;;;;;;0.10;0.10;;;7.20;99.90;;;;;;4890120;29;20056;-75
2023/04/01 08:19:17;;;;;;;0.00;0.00;;;7.20;99.90;;;;;;4888652;29;20803;-75
2023/04/01 08:21:47;;;;;;;0.00;0.00;;;7.10;99.90;;;;;;4945328;29;20259;-75
2023/04/01 08:24:47;;;;;;;0.00;0.00;;;7.00;99.90;;;;;;4944523;29;20713;-74
2023/04/01 08:27:24;;;;;;;0.10;0.10;;;6.90;99.90;;;;;;4869300;29;20102;-75
2023/04/01 08:30:13;;;;;;;0.10;0.10;;;6.90;99.90;;;;;;4869008;29;20153;-75
2023/04/01 08:32:43;;;;;;;0.00;0.00;;;6.90;99.90;;;;;;4869956;29;20022;-75
2023/04/01 08:35:30;;;;;;;0.10;0.10;;;6.70;99.90;;;;;;4867770;29;20108;-76
2023/04/01 08:38:06;;;;;;;0.10;0.10;;;6.60;99.90;;;;;;4867869;29;20737;-76
2023/04/01 08:40:50;;;;;;;0.10;0.10;;;6.50;99.90;;;;;;4868822;29;20038;-79
2023/04/01 08:43:56;;;;;;;0.10;0.10;;;6.40;99.90;;;;;;4877635;29;20033;-76
2023/04/01 08:47:20;;;;;;;0.10;0.10;;;6.80;99.90;;;;;;4894973;29;20805;-76
2023/04/01 08:50:30;;;;;;;0.03;0.03;;;6.50;99.90;;;;;;4847127;29;20044;-75
2023/04/01 08:53:14;;;;;;;0.00;0.00;;;6.50;99.90;;;;;;4844149;29;20254;-74
2023/04/01 08:56:01;;;;;;;0.10;0.10;;;6.50;99.90;;;;;;4847267;29;20072;-74
2023/04/01 08:58:53;;;;;;;0.05;0.05;;;6.50;99.90;;;;;;4842861;29;20037;-76
2023/04/01 09:02:04;;;;;;;0.08;0.08;;;6.40;99.90;;;;;;4820958;29;20030;-75
2023/04/01 09:05:10;;;;;;;0.03;0.03;;;6.40;99.90;;;;;;4884934;29;20021;-75
2023/04/01 09:08:06;;;;;;;8.90;8.57;;;6.40;99.90;;;;;;4867972;29;20026;-78
2023/04/01 09:10:53;;;;;;;0.10;0.10;;;6.40;99.90;;;;;;4872226;29;20039;-76
2023/04/01 09:14:03;;;;;;;0.20;0.20;;;6.40;99.90;;;;;;4873204;29;20025;-76
2023/04/01 09:17:25;;;;;;;0.00;0.00;;;6.50;99.90;;;;;;4871359;29;20049;-76
2023/04/01 09:20:30;;;;;;;0.00;0.00;;;6.30;99.90;;;;;;4854809;29;20057;-78
2023/04/01 09:23:15;;;;;;;0.10;0.10;;;6.40;99.90;;;;;;4822367;29;20629;-75
2023/04/01 09:26:12;;;;;;;0.00;0.00;;;6.30;99.90;;;;;;4833221;29;20160;-76
2023/04/01 09:29:21;;;;;;;0.00;0.00;;;6.40;99.90;;;;;;4833236;29;20042;-76
2023/04/01 09:32:20;;;;;;;0.00;0.00;;;6.40;99.90;;;;;;4843092;29;20044;-75
2023/04/01 09:35:31;;;;;;;0.00;0.00;;;6.40;99.90;;;;;;4866069;29;20033;-75
2023/04/01 09:38:22;;;;;;;0.10;0.10;;;6.30;99.90;;;;;;4869847;29;20037;-76
2023/04/01 09:41:25;;;;;;;0.10;0.10;;;6.30;99.90;;;;;;4864572;29;20037;-75
2023/04/01 09:44:30;;;;;;;0.10;0.10;;;6.00;99.90;;;;;;4852292;29;20038;-75
2023/04/01 09:47:41;;;;;;;0.10;0.10;;;6.00;99.90;;;;;;4866774;29;20037;-75
2023/04/01 09:50:06;;;;;;;0.10;0.10;;;7.60;99.90;;;;;;4864993;29;20044;-76
2023/04/01 09:52:39;;;;;;;0.10;0.10;;;6.00;99.90;;;;;;4864115;29;20057;-76
2023/04/01 09:56:20;;;;;;;0.10;0.10;;;6.00;99.90;;;;;;4846154;29;20740;-75
2023/04/01 09:59:23;;;;;;;0.05;0.05;;;6.10;99.90;;;;;;4866564;29;20127;-75
2023/04/01 10:02:22;;;;;;;0.10;0.10;;;6.20;99.90;;;;;;4884761;29;20044;-77
2023/04/01 10:05:20;;;;;;;0.10;0.10;;;6.20;99.90;;;;;;4897987;29;20024;-76
2023/04/01 10:08:05;;;;;;;0.10;0.10;;;6.20;99.90;;;;;;4891767;29;20033;-75
2023/04/01 10:10:45;;;;;;;0.10;0.10;;;6.20;99.90;;;;;;4891349;29;20044;-75
2023/04/01 10:13:38;;;;;;;0.10;0.10;;;6.30;99.90;;;;;;4897672;29;20061;-76
2023/04/01 10:16:25;;;;;;;0.05;0.05;;;6.40;99.90;;;;;;4932846;29;20039;-78
2023/04/01 10:19:36;;;;;;;0.10;0.10;;;6.40;99.90;;;;;;4930825;29;20039;-75
2023/04/01 10:22:44;;;;;;;0.08;0.08;;;6.50;99.90;;;;;;4916022;29;20060;-74
2023/04/01 10:25:40;;;;;;;0.10;0.10;;;6.60;99.90;;;;;;4917324;28;20055;-76
2023/04/01 10:28:35;;;;;;;0.10;0.10;;;6.80;99.90;;;;;;4930314;29;20031;-76
2023/04/01 10:31:10;;;;;;;0.00;0.00;;;6.90;99.90;;;;;;4933772;29;20078;-75
2023/04/01 10:34:10;;;;;;;0.10;0.10;;;7.00;99.90;;;;;;4966751;28;20035;-75
2023/04/01 10:37:16;;;;;;;0.05;0.05;;;7.20;99.90;;;;;;5012891;28;20022;-75
2023/04/01 10:40:35;;;;;;;0.00;0.00;;;7.50;99.90;;;;;;4935324;29;20046;-76
2023/04/01 10:43:06;;;;;;;0.00;0.00;;;7.60;99.90;;;;;;4909520;29;20044;-75
2023/04/01 10:45:57;;;;;;;0.00;0.00;;;8.00;99.90;;;;;;4914380;29;20028;-75
2023/04/01 10:48:44;;;;;;;0.75;0.75;;;8.00;99.90;;;;;;4876415;29;20779;-77
2023/04/01 10:51:57;;;;;;;1.10;1.10;;;8.10;99.90;;;;;;4871044;29;20861;-77
2023/04/01 10:54:50;;;;;;;0.00;0.00;;;8.10;99.90;;;;;;4808332;29;20042;-76
2023/04/01 10:57:27;;;;;;;0.10;0.10;;;8.30;99.90;;;;;;4823924;29;20087;-78
2023/04/01 11:00:18;;;;;;;0.00;0.00;;;8.20;99.90;;;;;;4820865;29;20043;-76
2023/04/01 11:03:48;;;;;;;0.00;0.00;;;8.30;99.90;;;;;;4823117;29;20054;-77
2023/04/01 11:06:42;;;;;;;0.00;0.00;;;8.70;99.90;;;;;;4732512;30;20036;-81
2023/04/01 11:10:02;;;;;;;0.00;0.00;;;9.30;99.90;;;;;;4726708;30;20049;-76
2023/04/01 11:12:42;;;;;;;0.10;0.10;;;9.30;99.90;;;;;;4711275;30;20045;-75
2023/04/01 11:15:34;;;;;;;0.00;0.00;;;9.80;99.90;;;;;;4720331;30;20048;-77
2023/04/01 11:18:24;;;;;;;0.05;0.05;;;10.00;99.90;;;;;;4765133;30;20044;-76
2023/04/01 11:21:15;;;;;;;0.10;0.10;;;10.30;99.90;;;;;;4763524;29;20046;-76
2023/04/01 11:23:59;;;;;;;0.10;0.10;;;10.10;99.90;;;;;;4763907;30;20240;-76
2023/04/01 11:26:52;;;;;;;0.20;0.20;;;10.00;99.90;;;;;;4799414;29;20039;-76
2023/04/01 11:29:38;;;;;;;0.10;0.10;;;9.80;99.90;;;;;;4803742;29;20047;-77
2023/04/01 11:32:36;;;;;;;0.10;0.10;;;9.70;99.90;;;;;;4845728;29;20545;-75
2023/04/01 11:35:08;;;;;;;0.17;0.17;;;12.60;99.90;;;;;;4864527;29;20026;-76
2023/04/01 11:38:08;;;;;;;0.00;0.00;;;9.70;99.90;;;;;;4943791;28;20027;-76
2023/04/01 11:40:49;;;;;;;0.00;0.00;;;9.70;99.90;;;;;;4916606;29;20240;-76
2023/04/01 11:43:39;;;;;;;0.10;0.10;;;9.70;99.90;;;;;;4916124;29;20858;-77
2023/04/01 11:46:19;;;;;;;0.08;0.08;;;9.90;99.90;;;;;;4928105;29;20047;-77
2023/04/01 11:49:11;;;;;;;0.05;0.05;;;10.10;99.90;;;;;;4951753;29;20035;-77
2023/04/01 11:51:40;;;;;;;1.05;1.05;;;10.10;99.90;;;;;;4950165;29;20229;-76
2023/04/01 11:54:25;;;;;;;0.10;0.10;;;10.20;99.90;;;;;;4948266;29;20027;-77
2023/04/01 11:57:11;;;;;;;0.10;0.10;;;10.30;99.90;;;;;;4946522;28;20042;-77
2023/04/01 11:59:57;;;;;;;0.10;0.10;;;10.40;99.90;;;;;;4946378;29;20126;-78
2023/04/01 12:02:35;;;;;;;0.10;0.10;;;10.50;99.90;;;;;;4947587;29;20027;-78
2023/04/01 12:05:21;;;;;;;0.10;0.10;;;10.70;99.90;;;;;;4952406;29;20035;-77
2023/04/01 12:07:49;;;;;;;0.25;0.25;;;11.00;99.90;;;;;;4951974;29;20018;-77
2023/04/01 12:10:19;;;;;;;0.00;0.00;;;11.00;99.90;;;;;;4952841;29;20067;-76
2023/04/01 12:13:06;;;;;;;0.10;0.10;;;11.60;99.90;;;;;;4953647;29;20187;-77
2023/04/01 12:15:41;;;;;;;0.10;0.10;;;11.60;99.90;;;;;;4970704;28;20060;-76
2023/04/01 12:18:50;;;;;;;0.10;0.10;;;11.70;99.90;;;;;;5028629;28;20017;-78
2023/04/01 12:21:36;;;;;;;0.10;0.10;;;12.20;99.90;;;;;;5011979;28;20120;-77
2023/04/01 12:24:24;;;;;;;0.10;0.10;;;12.40;99.90;;;;;;5033142;28;20026;-76
2023/04/01 12:27:08;;;;;;;0.20;0.20;;;12.20;99.90;;;;;;5027493;28;20013;-77
2023/04/01 12:29:58;;;;;;;0.10;0.10;;;12.50;99.90;;;;;;5027791;28;20127;-77
2023/04/01 12:32:49;;;;;;;0.10;0.10;;;12.50;99.90;;;;;;5006155;28;20133;-77
2023/04/01 12:35:48;;;;;;;0.20;0.20;;;12.60;99.90;;;;;;5028343;28;20028;-75
2023/04/01 12:38:39;;;;;;;0.20;0.20;;;12.70;99.90;;;;;;4944548;28;20105;-82
2023/04/01 12:41:38;;;;;;;0.20;0.20;;;13.10;99.90;;;;;;4939845;29;20685;-79
2023/04/01 12:44:44;;;;;;;0.10;0.10;;;13.30;99.90;;;;;;4939113;29;20042;-81
2023/04/01 12:47:20;;;;;;;0.10;0.10;;;13.20;99.90;;;;;;4939794;29;20054;-79
2023/04/01 12:50:10;;;;;;;0.20;0.20;;;13.20;99.90;;;;;;4944050;29;20114;-75
2023/04/01 12:53:08;;;;;;;0.10;0.10;;;12.80;99.90;;;;;;4947610;29;20054;-76
2023/04/01 12:55:50;;;;;;;0.20;0.20;;;12.50;99.90;;;;;;4884791;29;20043;-77
2023/04/01 12:58:47;;;;;;;0.20;0.20;;;12.50;99.90;;;;;;4882001;29;20046;-75
2023/04/01 13:01:42;;;;;;;0.50;0.50;;;12.50;99.90;;;;;;4845403;29;20072;-79
2023/04/01 13:04:26;;;;;;;0.10;0.10;;;12.60;99.90;;;;;;4809160;29;20038;-75
2023/04/01 13:07:22;;;;;;;0.10;0.10;;;12.50;99.90;;;;;;4818581;29;20050;-76
2023/04/01 13:09:57;;;;;;;0.10;0.10;;;12.50;99.90;;;;;;4817315;29;20082;-76
2023/04/01 13:12:38;;;;;;;0.10;0.10;;;12.30;99.90;;;;;;4818512;29;20061;-76
2023/04/01 13:15:42;;;;;;;0.10;0.10;;;12.20;99.90;;;;;;4832167;29;20056;-77
2023/04/01 13:18:41;;;;;;;0.10;0.10;;;12.00;99.90;;;;;;4835419;29;20030;-76
2023/04/01 13:21:16;;;;;;;0.10;0.10;;;11.90;99.90;;;;;;4829361;29;20038;-76
2023/04/01 13:23:53;;;;;;;0.10;0.10;;;11.60;99.90;;;;;;4829966;29;20038;-76
2023/04/01 13:26:44;;;;;;;0.17;0.17;;;11.50;99.90;;;;;;4833327;29;20037;-75
2023/04/01 13:29:20;;;;;;;0.20;0.20;;;11.50;99.90;;;;;;4837576;29;20103;-78
2023/04/01 13:32:13;;;;;;;0.10;0.10;;;11.40;99.90;;;;;;4828481;29;20038;-76
2023/04/01 13:35:06;;;;;;;0.10;0.10;;;11.40;99.90;;;;;;4819095;29;20062;-76
2023/04/01 13:37:50;;;;;;;0.15;0.15;;;11.40;99.90;;;;;;4831170;29;20120;-76
2023/04/01 13:40:45;;;;;;;0.10;0.10;;;11.40;99.90;;;;;;4875488;29;20070;-75
2023/04/01 13:43:14;;;;;;;0.20;0.20;;;11.70;99.90;;;;;;4929980;29;20023;-76
2023/04/01 13:46:15;;;;;;;0.10;0.10;;;11.90;99.90;;;;;;4926966;29;20032;-76
2023/04/01 13:49:06;;;;;;;0.10;0.10;;;12.10;99.90;;;;;;4886787;29;20037;-76
2023/04/01 13:51:58;;;;;;;0.10;0.10;;;12.20;99.90;;;;;;4886767;29;20060;-77
2023/04/01 13:55:05;;;;;;;0.65;0.65;;;12.70;99.90;;;;;;4900500;29;20028;-78
2023/04/01 13:57:42;;;;;;;0.10;0.10;;;13.60;99.90;;;;;;4938538;29;20035;-77